Time;durP1;ratioP1;P1;durP2;ratioP2;P2;SDS_P1;SDS_P2;PMS_P1;PMS_P2;Temp;Humidity;BMP_temperature;BMP_pressure;BME280_temperature;BME280_humidity;BME280_pressure;Samples;Min_cycle;Max_cycle;Signal;HPM_P1;HPM_P2
2021/12/08 00:00:58;;;;;;;77.37;56.97;;;;;;;-0.08;96.90;100224.63;4992915;28;20508;-87
2021/12/08 00:03:28;;;;;;;72.35;60.38;;;;;;;0.04;96.13;100231.47;4975257;28;20022;-85
2021/12/08 00:05:53;;;;;;;71.97;59.05;;;;;;;0.03;96.19;100220.50;4973942;28;20034;-84
2021/12/08 00:08:21;;;;;;;77.55;55.65;;;;;;;0.02;96.54;100223.00;4971725;28;20069;-85
2021/12/08 00:13:28;;;;;;;79.93;60.08;;;;;;;-0.02;96.54;100212.03;4979906;28;20034;-86
2021/12/08 00:16:01;;;;;;;76.35;59.13;;;;;;;0.01;96.28;100211.22;4965565;28;20026;-87
2021/12/08 00:18:31;;;;;;;81.50;59.28;;;;;;;0.03;96.15;100196.91;4980180;28;20045;-86
2021/12/08 00:21:00;;;;;;;60.65;54.28;;;;;;;-0.23;96.85;100173.16;4969183;28;20429;-87
2021/12/08 00:23:27;;;;;;;85.03;61.95;;;;;;;-0.07;97.14;100188.41;4968650;28;20036;-84
2021/12/08 00:25:56;;;;;;;87.03;66.53;;;;;;;-0.01;96.43;100184.25;4968270;28;20049;-84
2021/12/08 00:28:23;;;;;;;74.70;57.80;;;;;;;-0.04;96.66;100153.03;4968485;28;20034;-84
2021/12/08 00:30:51;;;;;;;83.00;63.63;;;;;;;-0.01;96.93;100148.00;5000797;23;20038;-86
2021/12/08 00:33:18;;;;;;;65.43;58.15;;;;;;;-0.07;97.26;100107.50;4997089;28;20078;-88
2021/12/08 00:35:46;;;;;;;81.15;61.97;;;;;;;-0.09;97.30;100099.09;4997063;28;20045;-88
2021/12/08 00:38:11;;;;;;;74.95;58.60;;;;;;;-0.04;97.23;100099.94;4996248;28;20034;-88
2021/12/08 00:40:37;;;;;;;83.73;60.87;;;;;;;-0.03;97.46;100106.69;4981053;28;20556;-88
2021/12/08 00:43:03;;;;;;;62.50;55.37;;;;;;;-0.04;97.30;100110.06;4979205;28;20148;-88
2021/12/08 00:45:29;;;;;;;;;;;;;;;-0.03;97.83;100134.50;4995727;28;20026;-88
2021/12/08 00:47:55;;;;;;;83.53;59.72;;;;;;;-0.11;97.70;100110.84;4996103;28;19916;-88
2021/12/08 00:50:23;;;;;;;66.35;55.78;;;;;;;-0.07;97.23;100117.63;4993158;28;20014;-87
2021/12/08 00:52:51;;;;;;;86.45;62.15;;;;;;;-0.16;97.97;100087.25;5023414;28;20027;-88
2021/12/08 00:55:18;;;;;;;83.10;62.35;;;;;;;0.00;98.05;100129.47;4980649;28;20037;-88
2021/12/08 00:58:03;;;;;;;91.07;65.07;;;;;;;-0.09;97.68;100129.44;4978010;28;20105;-87
2021/12/08 01:00:32;;;;;;;73.53;58.17;;;;;;;-0.25;97.65;100093.94;4982620;28;20027;-87
2021/12/08 01:02:58;;;;;;;81.68;60.95;;;;;;;-0.10;97.48;100122.66;4980351;28;20118;-87
2021/12/08 01:05:35;;;;;;;67.43;54.55;;;;;;;-0.06;97.31;100127.75;4984349;28;20054;-87
2021/12/08 01:08:01;;;;;;;87.45;63.22;;;;;;;-0.19;97.32;100111.66;4999247;28;20030;-87
2021/12/08 01:10:28;;;;;;;93.60;63.83;;;;;;;-0.01;97.44;100150.53;4996018;28;20026;-87
2021/12/08 01:12:54;;;;;;;81.88;63.13;;;;;;;0.09;97.11;100157.31;4979551;28;20374;-87
2021/12/08 01:15:21;;;;;;;75.18;58.00;;;;;;;-0.03;97.07;100145.47;4996842;28;20023;-87
2021/12/08 01:17:46;;;;;;;94.57;63.85;;;;;;;-0.02;97.58;100151.34;4976721;28;20080;-86
2021/12/08 01:20:14;;;;;;;61.47;54.57;;;;;;;0.04;97.21;100127.81;4963479;28;20110;-87
2021/12/08 01:22:39;;;;;;;67.03;57.95;;;;;;;0.16;97.01;100126.16;4974490;28;20033;-87
2021/12/08 01:25:05;;;;;;;77.13;61.17;;;;;;;0.09;96.99;100119.38;4998919;28;20023;-88
2021/12/08 01:27:32;;;;;;;72.93;58.58;;;;;;;0.02;96.57;100094.91;4998546;28;20018;-88
2021/12/08 01:29:57;;;;;;;77.13;57.78;;;;;;;0.15;96.36;100108.47;4982875;28;20577;-87
2021/12/08 01:32:23;;;;;;;63.60;54.53;;;;;;;0.13;96.24;100100.03;4999493;28;20054;-88
2021/12/08 01:34:49;;;;;;;87.30;62.27;;;;;;;-0.10;96.41;100065.34;4989076;28;20015;-87
2021/12/08 01:37:14;;;;;;;73.53;59.90;;;;;;;0.09;96.30;100083.97;4992269;28;20026;-88
2021/12/08 01:39:39;;;;;;;71.17;61.63;;;;;;;0.14;96.54;100084.00;5002386;28;20289;-89
2021/12/08 01:42:06;;;;;;;67.87;58.10;;;;;;;0.20;96.08;100090.78;5020728;28;20041;-89
2021/12/08 01:47:16;;;;;;;67.55;58.13;;;;;;;0.20;96.59;100070.53;5020122;28;20033;-88
2021/12/08 01:49:41;;;;;;;61.70;54.80;;;;;;;0.23;95.91;100055.38;5019556;28;20027;-87
2021/12/08 01:52:06;;;;;;;76.70;59.37;;;;;;;0.20;95.28;100040.19;4999196;28;20038;-88
2021/12/08 01:54:32;;;;;;;65.63;57.40;;;;;;;0.25;95.21;100049.44;5018896;28;20104;-87
2021/12/08 01:57:00;;;;;;;84.80;58.27;;;;;;;0.32;95.27;100047.81;5017789;28;20036;-87
2021/12/08 01:59:25;;;;;;;73.43;59.05;;;;;;;0.23;95.44;100022.50;5002654;28;20034;-87
2021/12/08 02:01:50;;;;;;;64.73;55.33;;;;;;;0.31;95.15;100025.88;4984263;28;20068;-87
2021/12/08 02:04:16;;;;;;;61.83;55.30;;;;;;;0.21;95.39;99996.31;5018153;28;20062;-88
2021/12/08 02:06:45;;;;;;;80.20;60.00;;;;;;;0.42;94.81;100019.13;4983281;28;20054;-89
2021/12/08 02:09:13;;;;;;;65.22;55.75;;;;;;;0.24;95.08;99988.75;4984158;28;20026;-87
2021/12/08 02:11:40;;;;;;;65.85;57.25;;;;;;;0.39;95.42;100009.00;4999943;28;20022;-88
2021/12/08 02:14:05;;;;;;;72.88;60.15;;;;;;;0.43;94.96;100013.25;5000399;28;20022;-87
2021/12/08 02:16:31;;;;;;;77.07;57.47;;;;;;;0.47;94.81;99994.69;5001132;28;20049;-87
2021/12/08 02:18:57;;;;;;;78.10;60.63;;;;;;;0.40;95.28;99980.34;5016731;28;20023;-86
2021/12/08 02:21:28;;;;;;;80.65;58.72;;;;;;;0.33;94.95;99971.91;5016182;28;20049;-86
2021/12/08 02:23:56;;;;;;;63.40;56.53;;;;;;;0.50;94.35;99966.00;4983503;28;20061;-86
2021/12/08 02:26:21;;;;;;;62.42;55.05;;;;;;;0.51;94.41;99968.53;4984115;28;20026;-87
2021/12/08 02:28:47;;;;;;;64.03;55.97;;;;;;;0.57;94.49;99974.44;5000790;28;20023;-86
2021/12/08 02:31:16;;;;;;;63.58;55.70;;;;;;;0.52;93.31;99949.97;4998952;28;20057;-87
2021/12/08 02:47:41;;;;;;;68.03;55.75;;;;;;;0.75;90.77;99928.88;5019043;28;20117;-87
2021/12/08 02:50:07;;;;;;;66.75;56.10;;;;;;;0.68;90.43;99905.25;5017959;28;20021;-87
2021/12/08 02:52:32;;;;;;;67.18;55.92;;;;;;;0.70;90.32;99923.81;5015593;28;20014;-87
2021/12/08 02:55:02;;;;;;;62.77;54.20;;;;;;;0.74;90.34;99917.06;4999401;28;20057;-86
2021/12/08 02:57:28;;;;;;;64.50;56.83;;;;;;;0.71;89.75;99902.72;4999653;28;20022;-85
2021/12/08 02:59:53;;;;;;;66.37;56.90;;;;;;;0.72;89.71;99923.81;4979794;28;20030;-86
2021/12/08 03:02:19;;;;;;;64.57;56.60;;;;;;;0.71;89.69;99922.13;4994572;28;20029;-87
2021/12/08 03:04:45;;;;;;;63.77;56.83;;;;;;;0.75;89.17;99923.81;4989654;28;20039;-87
2021/12/08 03:07:10;;;;;;;;;;;;;;;0.69;90.22;99919.59;4984159;28;20018;-87
2021/12/08 03:09:36;;;;;;;62.75;56.00;;;;;;;0.60;89.85;99903.56;4995844;28;19917;-87
2021/12/08 03:12:03;;;;;;;61.07;54.57;;;;;;;0.69;90.01;99927.19;4984544;28;20034;-88
2021/12/08 03:14:30;;;;;;;58.47;52.70;;;;;;;0.72;90.18;99921.28;4997483;28;20023;-87
2021/12/08 03:16:58;;;;;;;63.50;55.08;;;;;;;0.70;89.59;99916.22;4997100;28;20031;-87
2021/12/08 03:19:26;;;;;;;63.38;56.38;;;;;;;0.65;89.78;99906.94;4980156;28;20041;-87
2021/12/08 03:21:52;;;;;;;59.75;53.28;;;;;;;0.73;90.23;99925.47;4983513;28;20036;-88
2021/12/08 03:24:26;;;;;;;65.38;56.60;;;;;;;0.57;89.91;99906.13;5001708;28;20018;-88
2021/12/08 03:27:17;;;;;;;65.63;54.35;;;;;;;0.65;89.63;99909.47;5002942;28;20053;-88
2021/12/08 03:29:48;;;;;;;72.20;56.05;;;;;;;0.70;89.05;99907.78;5003072;28;20046;-86
2021/12/08 03:32:17;;;;;;;57.72;51.90;;;;;;;0.76;89.26;99890.03;5003806;28;20026;-88
2021/12/08 03:34:51;;;;;;;57.22;51.38;;;;;;;0.77;89.10;99906.94;4999551;28;20022;-87
2021/12/08 03:37:22;;;;;;;64.35;54.22;;;;;;;0.76;88.52;99905.22;4982904;28;20018;-87
2021/12/08 03:39:49;;;;;;;62.05;55.38;;;;;;;0.75;88.81;99898.50;4981426;28;20049;-87
2021/12/08 03:42:16;;;;;;;59.90;53.67;;;;;;;0.82;88.70;99891.72;4996849;28;20188;-87
2021/12/08 03:44:41;;;;;;;61.97;54.83;;;;;;;0.72;89.09;99896.81;4986499;28;20026;-88
2021/12/08 03:47:14;;;;;;;63.10;56.17;;;;;;;0.79;89.08;99902.69;4991598;28;20027;-86
2021/12/08 03:49:41;;;;;;;64.10;54.80;;;;;;;0.79;89.02;99912.00;4996461;28;20094;-87
2021/12/08 03:52:09;;;;;;;66.70;56.28;;;;;;;0.83;88.93;99906.91;4990978;28;20042;-88
2021/12/08 03:54:35;;;;;;;70.50;58.70;;;;;;;0.64;88.77;99900.22;5005181;28;20033;-87
2021/12/08 03:57:00;;;;;;;67.40;56.58;;;;;;;0.75;88.72;99907.75;4993801;28;20050;-89
2021/12/08 03:59:26;;;;;;;59.77;53.80;;;;;;;0.71;88.59;99890.03;5005625;28;20046;-88
2021/12/08 04:01:51;;;;;;;60.50;54.10;;;;;;;0.71;88.90;99891.75;4990188;28;20053;-88
2021/12/08 04:04:16;;;;;;;65.70;56.13;;;;;;;0.64;88.32;99901.03;4989372;28;20038;-87
2021/12/08 04:06:49;;;;;;;62.17;55.40;;;;;;;0.72;88.53;99908.63;4984273;28;20034;-88
2021/12/08 04:09:33;;;;;;;65.68;55.97;;;;;;;0.77;89.46;99916.22;4984411;28;20035;-87
2021/12/08 04:12:00;;;;;;;63.67;56.55;;;;;;;0.78;88.34;99936.47;5006693;28;20026;-88
2021/12/08 04:14:29;;;;;;;65.07;55.63;;;;;;;0.75;88.83;99921.28;5013651;28;20030;-89
2021/12/08 04:17:17;;;;;;;61.30;52.97;;;;;;;0.74;88.56;99927.19;4990619;28;20019;-88
2021/12/08 04:19:43;;;;;;;60.78;54.42;;;;;;;0.80;87.85;99937.31;4987083;28;20034;-89
2021/12/08 04:22:14;;;;;;;63.40;55.05;;;;;;;0.80;88.19;99937.31;5012391;28;20390;-89
2021/12/08 04:24:41;;;;;;;62.00;54.92;;;;;;;0.84;88.16;99933.94;5012634;28;20033;-89
2021/12/08 04:27:12;;;;;;;61.50;54.15;;;;;;;0.78;87.97;99925.47;4986294;28;20022;-87
2021/12/08 04:29:40;;;;;;;66.75;56.58;;;;;;;0.73;87.76;99925.47;4994374;28;20014;-89
2021/12/08 04:32:06;;;;;;;58.78;52.67;;;;;;;0.72;87.74;99912.00;4981728;28;20157;-89
2021/12/08 04:34:37;;;;;;;59.67;53.38;;;;;;;0.68;87.03;99900.19;4996559;28;20030;-89
2021/12/08 04:37:08;;;;;;;58.88;52.53;;;;;;;0.71;86.96;99904.41;4996219;28;20026;-88
2021/12/08 04:40:09;;;;;;;62.65;53.63;;;;;;;0.87;87.49;99944.03;4980211;28;20032;-89
2021/12/08 04:45:29;;;;;;;64.13;53.90;;;;;;;0.78;88.70;99913.69;4987813;28;20318;-90
2021/12/08 04:48:21;;;;;;;64.20;54.65;;;;;;;0.71;89.44;99912.81;4995576;28;20058;-89
2021/12/08 04:54:02;;;;;;;64.50;55.15;;;;;;;0.28;93.45;99905.28;4997392;28;20061;-87
2021/12/08 05:05:01;;;;;;;67.68;55.30;;;;;;;-0.01;98.69;99915.38;4998900;28;20105;-88
2021/12/08 05:07:46;;;;;;;59.47;53.25;;;;;;;0.02;99.57;99920.44;5000513;28;20041;-87
2021/12/08 05:10:16;;;;;;;75.03;58.83;;;;;;;-0.07;100.00;99928.84;4985409;28;20026;-88
2021/12/08 05:12:43;;;;;;;60.70;54.00;;;;;;;-0.14;100.00;99913.66;4965515;28;20018;-88
2021/12/08 05:15:15;;;;;;;65.68;55.33;;;;;;;-0.32;100.00;99902.66;4963943;28;20033;-88
2021/12/08 05:18:06;;;;;;;78.75;59.22;;;;;;;-0.26;100.00;99925.44;4962704;28;20041;-89
2021/12/08 05:20:40;;;;;;;74.05;57.80;;;;;;;-0.41;100.00;99905.19;5017679;28;20034;-89
2021/12/08 05:23:23;;;;;;;66.43;57.72;;;;;;;-0.45;100.00;99909.38;4992236;28;20026;-89
2021/12/08 05:25:50;;;;;;;72.53;59.38;;;;;;;-0.50;100.00;99892.53;4970573;28;20018;-89
2021/12/08 05:28:19;;;;;;;93.05;64.68;;;;;;;-0.49;100.00;99904.28;4998309;28;20056;-87
2021/12/08 05:30:58;;;;;;;81.13;58.60;;;;;;;-0.45;100.00;99923.69;4992317;28;20037;-88
2021/12/08 05:33:24;;;;;;;74.70;59.17;;;;;;;-0.43;100.00;99916.94;4982535;28;20034;-88
2021/12/08 05:35:51;;;;;;;64.45;56.75;;;;;;;-0.47;100.00;99906.00;4997341;28;20034;-87
2021/12/08 05:38:17;;;;;;;90.07;62.88;;;;;;;-0.45;100.00;99906.00;4992574;28;20029;-88
2021/12/08 05:40:44;;;;;;;;;;;;;;;-0.46;100.00;99927.03;4996292;28;20014;-87
2021/12/08 05:43:10;;;;;;;67.35;57.80;;;;;;;-0.45;100.00;99921.16;5000577;28;19906;-87
2021/12/08 05:45:36;;;;;;;76.72;56.72;;;;;;;-0.48;100.00;99903.47;4997065;28;20042;-88
2021/12/08 05:48:02;;;;;;;;;;;;;;;-0.56;100.00;99936.28;4992685;28;20396;-89
2021/12/08 05:50:32;;;;;;;71.25;60.50;;;;;;;-0.60;100.00;99935.44;5001464;28;19980;-89
2021/12/08 05:52:58;;;;;;;75.03;60.40;;;;;;;-0.63;100.00;99921.94;4989084;28;20052;-88
2021/12/08 05:55:23;;;;;;;94.07;65.97;;;;;;;-0.71;100.00;99937.06;5042884;23;20013;-87
2021/12/08 05:57:50;;;;;;;79.90;62.00;;;;;;;-0.63;100.00;99927.00;4987589;28;20054;-89
2021/12/08 06:00:30;;;;;;;63.70;55.15;;;;;;;-0.63;100.00;99940.47;4982128;28;20489;-88
2021/12/08 06:02:56;;;;;;;82.47;61.38;;;;;;;-0.67;100.00;99933.69;4978741;28;20027;-88
2021/12/08 06:05:22;;;;;;;64.80;56.33;;;;;;;-0.70;100.00;99923.63;4995023;28;20037;-90
2021/12/08 06:07:47;;;;;;;82.57;64.88;;;;;;;-0.75;100.00;99935.34;5001978;28;20038;-89
2021/12/08 06:10:22;;;;;;;70.73;57.60;;;;;;;-0.79;100.00;99928.63;4994114;28;20078;-89
2021/12/08 06:12:50;;;;;;;87.45;62.90;;;;;;;-0.77;100.00;99937.03;4993918;28;20473;-88
2021/12/08 06:15:16;;;;;;;77.45;58.90;;;;;;;-0.78;100.00;99932.81;4993069;28;20057;-89
2021/12/08 06:17:41;;;;;;;64.30;57.38;;;;;;;-0.82;100.00;99943.75;4992809;28;20027;-88
2021/12/08 06:20:09;;;;;;;82.87;60.37;;;;;;;-0.81;100.00;99921.03;4984860;28;20162;-86
2021/12/08 06:22:34;;;;;;;95.65;64.53;;;;;;;-0.82;100.00;99928.59;4984761;28;20029;-87
2021/12/08 06:24:59;;;;;;;90.37;65.40;;;;;;;-0.85;100.00;99923.53;5002629;28;20034;-87
2021/12/08 06:27:26;;;;;;;94.07;63.13;;;;;;;-0.86;100.00;99935.31;4987692;28;20026;-85
2021/12/08 06:30:02;;;;;;;86.22;62.72;;;;;;;-0.80;100.00;99942.06;4988365;28;20066;-88
2021/12/08 06:32:28;;;;;;;93.63;61.30;;;;;;;-0.74;100.00;99949.69;4997056;28;20035;-88
2021/12/08 06:34:56;;;;;;;82.77;62.47;;;;;;;-0.80;100.00;99935.31;4994996;28;20049;-88
2021/12/08 06:37:29;;;;;;;64.88;57.05;;;;;;;-0.80;100.00;99942.06;5042367;23;20046;-87
2021/12/08 06:40:03;;;;;;;100.07;65.65;;;;;;;-0.84;100.00;99942.88;5003773;28;20035;-86
2021/12/08 06:42:32;;;;;;;111.20;68.07;;;;;;;-0.87;100.00;99941.19;4990731;28;20014;-91
2021/12/08 06:45:14;;;;;;;107.20;66.68;;;;;;;-0.91;100.00;99934.44;5013290;28;20056;-86
2021/12/08 06:47:46;;;;;;;94.95;64.10;;;;;;;-0.82;100.00;99943.75;5007993;28;20041;-88
2021/12/08 06:50:20;;;;;;;127.57;71.55;;;;;;;-0.73;100.00;99969.06;5008475;28;20109;-85
2021/12/08 06:52:52;;;;;;;125.95;73.38;;;;;;;-0.76;100.00;99962.31;4990342;28;20090;-89
2021/12/08 06:55:28;;;;;;;117.30;69.50;;;;;;;-0.77;100.00;99962.28;4990035;28;20068;-85
2021/12/08 06:58:01;;;;;;;96.13;65.72;;;;;;;-0.73;100.00;99974.94;4986236;28;20023;-84
2021/12/08 07:03:50;;;;;;;121.40;70.57;;;;;;;-0.68;100.00;99962.34;5006772;28;20064;-86
2021/12/08 07:06:59;;;;;;;99.57;66.68;;;;;;;-0.76;100.00;99959.78;4996593;28;20070;-87
2021/12/08 07:09:27;;;;;;;107.75;69.65;;;;;;;-0.75;100.00;99955.56;5000700;28;20065;-89
2021/12/08 07:11:58;;;;;;;97.85;66.78;;;;;;;-0.74;100.00;99964.84;4980995;28;20031;-89
2021/12/08 07:14:27;;;;;;;96.20;62.50;;;;;;;-0.71;100.00;99954.75;4974324;28;20469;-88
2021/12/08 07:16:55;;;;;;;88.20;62.88;;;;;;;-0.64;100.00;99970.78;5003236;28;20030;-85
2021/12/08 07:19:32;;;;;;;100.90;64.97;;;;;;;-0.65;100.00;99967.41;4987399;28;20034;-87
2021/12/08 07:22:00;;;;;;;87.50;62.58;;;;;;;-0.64;100.00;99974.13;4987936;28;20022;-85
2021/12/08 07:24:30;;;;;;;87.03;62.28;;;;;;;-0.69;100.00;99950.53;4987205;28;20018;-86
2021/12/08 07:27:00;;;;;;;93.45;62.65;;;;;;;-0.61;100.00;99964.03;4987524;28;20052;-88
2021/12/08 07:29:33;;;;;;;98.55;65.72;;;;;;;-0.66;100.00;99955.59;4987470;28;20528;-86
2021/12/08 07:32:06;;;;;;;84.05;62.42;;;;;;;-0.61;100.00;99968.25;4987821;28;20060;-87
2021/12/08 07:34:36;;;;;;;90.07;61.92;;;;;;;-0.63;100.00;99958.16;4991795;28;20030;-86
2021/12/08 07:37:05;;;;;;;90.47;64.10;;;;;;;-0.65;100.00;99957.31;4996796;28;20037;-86
2021/12/08 07:39:34;;;;;;;92.53;64.45;;;;;;;-0.58;100.00;99966.59;4986499;28;20037;-86
2021/12/08 07:42:05;;;;;;;84.32;62.83;;;;;;;-0.53;100.00;99966.59;4987055;28;20033;-87
2021/12/08 07:44:30;;;;;;;91.07;65.00;;;;;;;-0.60;100.00;99965.75;4988234;28;20136;-85
2021/12/08 07:47:04;;;;;;;84.75;63.58;;;;;;;-0.50;100.00;99979.25;5011596;28;20010;-86
2021/12/08 07:49:33;;;;;;;88.68;64.18;;;;;;;-0.48;100.00;99974.22;4996930;28;20093;-86
2021/12/08 07:52:22;;;;;;;75.47;59.90;;;;;;;-0.48;100.00;99974.22;5014328;28;20030;-87
2021/12/08 07:54:48;;;;;;;79.13;61.92;;;;;;;-0.44;100.00;99965.81;4996905;28;20017;-89
2021/12/08 07:57:22;;;;;;;87.20;63.75;;;;;;;-0.41;100.00;99970.88;4995760;28;20029;-88
2021/12/08 07:59:51;;;;;;;78.43;61.90;;;;;;;-0.39;100.00;99959.94;4995611;28;20030;-85
2021/12/08 08:02:17;;;;;;;73.18;59.40;;;;;;;-0.37;100.00;99988.59;5011599;28;20027;-89
2021/12/08 08:04:44;;;;;;;93.78;65.88;;;;;;;-0.39;100.00;99969.19;4994919;28;20018;-86
2021/12/08 08:07:11;;;;;;;83.47;65.78;;;;;;;-0.44;100.00;99968.34;4993138;28;20332;-86
2021/12/08 08:09:42;;;;;;;76.32;60.80;;;;;;;-0.35;100.00;99973.44;4990858;28;20076;-86
2021/12/08 08:12:11;;;;;;;88.13;63.42;;;;;;;-0.33;100.00;99973.41;4988580;28;20129;-88
2021/12/08 08:14:41;;;;;;;85.43;64.05;;;;;;;-0.26;100.00;99986.09;4990737;28;20346;-84
2021/12/08 08:17:11;;;;;;;83.68;63.10;;;;;;;-0.26;100.00;99990.31;4999860;28;20061;-84
2021/12/08 08:19:43;;;;;;;84.07;61.80;;;;;;;-0.27;100.00;99998.72;4999967;28;20014;-85
2021/12/08 08:22:10;;;;;;;86.25;63.55;;;;;;;-0.30;100.00;99989.47;5000584;28;20082;-87
2021/12/08 08:24:37;;;;;;;80.95;62.08;;;;;;;-0.22;100.00;99982.75;4998767;28;20034;-87
2021/12/08 08:27:04;;;;;;;86.80;61.35;;;;;;;-0.19;100.00;99990.34;4996109;28;20053;-87
2021/12/08 08:29:30;;;;;;;87.95;63.33;;;;;;;-0.17;100.00;99985.28;4987242;28;20032;-89
2021/12/08 08:32:22;;;;;;;76.07;59.47;;;;;;;-0.17;100.00;99989.50;4988421;28;20026;-86
2021/12/08 08:34:51;;;;;;;87.90;62.63;;;;;;;-0.19;100.00;99986.97;4988319;28;20022;-87
2021/12/08 08:37:17;;;;;;;85.65;63.83;;;;;;;-0.22;100.00;100002.97;5004861;28;20044;-89
2021/12/08 08:39:59;;;;;;;85.88;58.60;;;;;;;-0.14;100.00;100007.19;4988450;28;20061;-88
2021/12/08 08:42:28;;;;;;;81.40;62.30;;;;;;;-0.25;100.00;99994.53;4988203;28;20026;-87
2021/12/08 08:44:58;;;;;;;84.53;64.40;;;;;;;-0.14;100.00;100014.78;4988403;28;20113;-87
2021/12/08 08:47:37;;;;;;;89.07;63.25;;;;;;;-0.16;100.00;100007.19;4988683;28;20027;-87
2021/12/08 08:50:06;;;;;;;83.22;62.67;;;;;;;-0.14;100.00;100009.72;4988374;28;20089;-88
2021/12/08 08:52:39;;;;;;;75.88;60.85;;;;;;;-0.19;100.00;99999.63;4988626;28;20042;-87
2021/12/08 08:55:19;;;;;;;71.05;57.83;;;;;;;-0.05;100.00;100012.28;4989281;28;20022;-88
2021/12/08 08:57:48;;;;;;;77.90;60.05;;;;;;;-0.09;100.00;100008.91;4997427;28;20017;-86
2021/12/08 09:00:30;;;;;;;65.88;57.20;;;;;;;-0.06;100.00;100003.84;5019857;28;20035;-84
2021/12/08 09:02:56;;;;;;;76.30;60.42;;;;;;;-0.01;100.00;100012.28;5018271;28;20098;-85
2021/12/08 09:05:32;;;;;;;75.22;58.47;;;;;;;0.00;100.00;100003.03;4999906;28;20094;-88
2021/12/08 09:07:59;;;;;;;71.18;59.85;;;;;;;-0.01;100.00;100006.41;4991876;28;20064;-87
2021/12/08 09:10:34;;;;;;;75.97;61.95;;;;;;;-0.13;100.00;99986.13;4989383;28;20030;-85
2021/12/08 09:13:06;;;;;;;80.13;60.60;;;;;;;-0.06;100.00;100008.91;4989565;28;20033;-88
2021/12/08 09:15:38;;;;;;;80.93;62.00;;;;;;;0.04;100.00;100014.84;4989662;28;20347;-87
2021/12/08 09:18:23;;;;;;;81.95;60.85;;;;;;;0.12;100.00;100023.28;4990723;28;20026;-86
2021/12/08 09:21:00;;;;;;;76.47;61.70;;;;;;;0.11;100.00;100025.81;4991528;28;20049;-87
2021/12/08 09:23:46;;;;;;;75.93;59.30;;;;;;;0.08;100.00;100016.56;4992181;28;20101;-87
2021/12/08 09:26:13;;;;;;;70.25;58.92;;;;;;;0.16;100.00;100025.00;4990058;28;20031;-87
2021/12/08 09:28:55;;;;;;;82.22;61.08;;;;;;;0.20;100.00;100035.13;4990589;28;20022;-87
2021/12/08 09:31:31;;;;;;;79.20;60.90;;;;;;;0.15;100.00;100033.41;5006248;28;20042;-88
2021/12/08 09:34:02;;;;;;;76.70;59.88;;;;;;;0.23;100.00;100035.13;4989827;28;20026;-88
2021/12/08 09:36:49;;;;;;;75.05;60.78;;;;;;;0.23;100.00;100033.44;4989134;28;20038;-86
2021/12/08 09:39:24;;;;;;;74.97;60.63;;;;;;;0.22;100.00;100036.78;5007244;28;20034;-85
2021/12/08 09:42:03;;;;;;;73.35;59.08;;;;;;;0.29;100.00;100035.97;5002197;28;20019;-84
2021/12/08 09:44:41;;;;;;;75.80;59.80;;;;;;;0.36;100.00;100037.66;5019075;28;20015;-85
2021/12/08 09:47:07;;;;;;;78.32;62.10;;;;;;;0.27;100.00;100030.09;5001356;28;20030;-86
2021/12/08 09:49:34;;;;;;;76.70;61.30;;;;;;;0.31;100.00;100034.28;5016294;28;20026;-85
2021/12/08 09:52:05;;;;;;;86.95;61.95;;;;;;;0.28;100.00;100018.28;5000055;28;20030;-87
2021/12/08 09:54:31;;;;;;;73.05;59.00;;;;;;;0.43;100.00;100030.09;5000151;28;20022;-86
2021/12/08 09:56:59;;;;;;;82.40;62.42;;;;;;;0.35;100.00;100014.91;4998935;28;20085;-87
2021/12/08 09:59:24;;;;;;;69.88;57.65;;;;;;;0.44;100.00;100017.44;4998101;28;20081;-88
2021/12/08 10:01:55;;;;;;;86.50;61.60;;;;;;;0.47;100.00;100019.16;4996915;28;20022;-87
2021/12/08 10:04:21;;;;;;;76.97;59.75;;;;;;;0.51;100.00;100016.63;4996722;28;20026;-86
2021/12/08 10:06:49;;;;;;;73.47;59.70;;;;;;;0.56;100.00;100014.09;5012549;28;20022;-87
2021/12/08 10:09:17;;;;;;;75.03;60.05;;;;;;;0.51;100.00;100011.56;4993569;28;20019;-86
2021/12/08 10:11:46;;;;;;;74.28;60.67;;;;;;;0.60;100.00;100020.00;4991282;28;20117;-87
2021/12/08 10:14:13;;;;;;;75.55;61.78;;;;;;;0.54;100.00;100011.56;4990332;28;20033;-88
2021/12/08 10:16:39;;;;;;;69.30;59.42;;;;;;;0.50;100.00;100017.47;4989632;28;20023;-87
2021/12/08 10:19:05;;;;;;;79.22;61.80;;;;;;;0.57;100.00;100014.94;4991311;28;20022;-86
2021/12/08 10:21:34;;;;;;;64.78;55.60;;;;;;;0.62;100.00;100008.19;4996211;28;20026;-85
2021/12/08 10:23:59;;;;;;;84.93;60.60;;;;;;;0.64;100.00;100004.00;4999246;28;20097;-85
2021/12/08 10:26:25;;;;;;;75.30;59.60;;;;;;;0.67;100.00;100027.59;4999556;28;20046;-85
2021/12/08 10:28:54;;;;;;;66.50;57.83;;;;;;;0.60;100.00;100015.78;4999919;28;20018;-85
2021/12/08 10:31:26;;;;;;;71.05;58.25;;;;;;;0.66;100.00;100025.06;4999868;28;20010;-83
2021/12/08 10:34:06;;;;;;;69.80;58.45;;;;;;;0.71;100.00;100023.38;5000851;28;20126;-85
2021/12/08 10:36:46;;;;;;;73.53;60.03;;;;;;;0.69;100.00;100025.06;5015813;28;20030;-84
2021/12/08 10:39:19;;;;;;;68.10;59.33;;;;;;;0.73;100.00;100026.75;5014913;28;20070;-86
2021/12/08 10:42:14;;;;;;;79.93;59.85;;;;;;;0.77;100.00;100032.69;5014672;28;20090;-85
2021/12/08 10:45:09;;;;;;;75.60;60.53;;;;;;;0.82;100.00;100024.22;4995868;28;20048;-85
2021/12/08 10:47:54;;;;;;;72.03;59.38;;;;;;;0.81;100.00;100014.09;4990166;28;20034;-85
2021/12/08 10:55:59;;;;;;;77.90;60.23;;;;;;;0.84;100.00;99999.75;5003654;28;20032;-86
2021/12/08 10:58:28;;;;;;;67.45;59.00;;;;;;;0.82;100.00;100000.59;4987727;28;20311;-88
2021/12/08 11:00:55;;;;;;;67.78;57.28;;;;;;;0.88;100.00;100021.69;4986977;28;20030;-87
2021/12/08 11:03:24;;;;;;;73.32;60.28;;;;;;;0.89;100.00;100018.31;4988043;28;20030;-88
2021/12/08 11:05:55;;;;;;;68.18;59.40;;;;;;;0.89;100.00;100010.72;4987178;28;20050;-87
2021/12/08 11:08:35;;;;;;;71.03;60.13;;;;;;;0.95;100.00;100009.03;4988184;28;20022;-86
2021/12/08 11:11:11;;;;;;;65.30;56.72;;;;;;;1.06;100.00;100020.00;4993763;28;20058;-85
2021/12/08 11:13:40;;;;;;;74.07;60.13;;;;;;;1.09;100.00;100008.16;5001034;28;20018;-85
2021/12/08 11:16:08;;;;;;;78.68;59.80;;;;;;;1.04;100.00;100001.44;4999901;28;20041;-84
2021/12/08 11:18:39;;;;;;;75.55;61.97;;;;;;;1.11;100.00;100018.28;5011277;28;20053;-85
2021/12/08 11:21:31;;;;;;;74.93;61.40;;;;;;;1.02;100.00;100013.25;4996963;28;20019;-84
2021/12/08 11:23:57;;;;;;;70.07;58.50;;;;;;;1.01;100.00;100011.56;4993526;28;20054;-85
2021/12/08 11:26:26;;;;;;;68.50;58.72;;;;;;;1.06;100.00;100013.22;4986946;28;20444;-87
2021/12/08 11:29:00;;;;;;;68.03;59.95;;;;;;;1.06;100.00;100025.06;5002771;28;20030;-86
2021/12/08 11:31:32;;;;;;;69.30;58.05;;;;;;;1.06;100.00;100003.09;5002438;28;20045;-87
2021/12/08 11:34:03;;;;;;;68.85;58.75;;;;;;;0.97;100.00;99997.19;5002635;28;20027;-86
2021/12/08 11:36:34;;;;;;;76.85;60.67;;;;;;;1.12;100.00;100014.09;4986282;28;20031;-86
2021/12/08 11:39:09;;;;;;;69.03;59.33;;;;;;;1.19;100.00;100026.72;4986648;28;20022;-85
2021/12/08 11:41:55;;;;;;;70.68;59.55;;;;;;;1.11;100.00;100025.88;4986187;28;20069;-88
2021/12/08 11:44:26;;;;;;;73.05;59.90;;;;;;;1.21;100.00;100024.19;4988794;28;20076;-86
2021/12/08 11:46:57;;;;;;;66.45;58.67;;;;;;;1.15;100.00;100045.31;4987677;28;20022;-87
2021/12/08 11:49:24;;;;;;;67.53;58.50;;;;;;;1.15;100.00;100039.41;4985995;28;20041;-87
2021/12/08 11:52:10;;;;;;;75.53;60.67;;;;;;;1.22;100.00;100036.84;4986729;28;20037;-86
2021/12/08 11:54:43;;;;;;;69.03;59.78;;;;;;;1.10;100.00;100029.28;5002824;28;20037;-88
2021/12/08 11:57:39;;;;;;;65.25;56.92;;;;;;;1.09;100.00;100032.66;5001298;28;20482;-86
2021/12/08 12:00:21;;;;;;;69.65;59.28;;;;;;;1.19;100.00;100036.00;4999734;28;20034;-87
2021/12/08 12:02:57;;;;;;;67.93;58.85;;;;;;;1.32;100.00;100040.22;4985253;28;20022;-87
2021/12/08 12:05:35;;;;;;;70.13;60.53;;;;;;;1.24;100.00;100030.09;4986113;28;20034;-87
2021/12/08 12:08:02;;;;;;;68.80;59.88;;;;;;;1.24;100.00;100035.19;4984069;28;20033;-84
2021/12/08 12:10:35;;;;;;;72.28;58.33;;;;;;;1.22;100.00;100026.72;4983978;28;20026;-87
2021/12/08 12:13:01;;;;;;;73.20;60.88;;;;;;;1.27;100.00;100040.25;4983129;28;20026;-86